Time;durP1;ratioP1;P1;durP2;ratioP2;P2;SDS_P1;SDS_P2;PMS_P1;PMS_P2;Temp;Humidity;BMP_temperature;BMP_pressure;BME280_temperature;BME280_humidity;BME280_pressure;Samples;Min_cycle;Max_cycle;Signal;HPM_P1;HPM_P2
2023/09/24 00:00:31;;;;;;;7.50;4.80;;;24.70;68.70;;;;;;7678935;22;80944;-51
2023/09/24 00:03:32;;;;;;;7.72;5.15;;;24.70;68.80;;;;;;7680724;22;80990;-62
2023/09/24 00:06:32;;;;;;;6.32;4.78;;;24.70;68.70;;;;;;7680193;22;81149;-61
2023/09/24 00:09:33;;;;;;;12.77;5.80;;;24.70;68.70;;;;;;7680822;22;81056;-59
2023/09/24 00:12:33;;;;;;;9.13;4.72;;;24.70;68.40;;;;;;7681128;22;80343;-59
2023/09/24 00:15:34;;;;;;;6.05;4.45;;;24.70;68.40;;;;;;7682286;22;80505;-61
2023/09/24 00:18:34;;;;;;;6.03;4.50;;;24.70;68.30;;;;;;7680182;22;80229;-54
2023/09/24 00:21:36;;;;;;;7.15;4.55;;;24.80;67.80;;;;;;7679415;22;80526;-55
2023/09/24 00:24:36;;;;;;;5.90;4.50;;;24.70;68.00;;;;;;7676245;22;80320;-52
2023/09/24 00:27:37;;;;;;;7.63;3.83;;;24.70;67.80;;;;;;7673675;22;80715;-52
2023/09/24 00:30:41;;;;;;;5.05;4.05;;;24.70;68.00;;;;;;7647859;22;81738;-52
2023/09/24 00:33:41;;;;;;;5.93;3.70;;;24.70;67.70;;;;;;7676669;22;80874;-54
2023/09/24 00:36:42;;;;;;;7.68;4.00;;;24.70;67.60;;;;;;7648901;22;83250;-54
2023/09/24 00:39:42;;;;;;;6.47;3.75;;;24.70;67.50;;;;;;7677300;22;81825;-47
2023/09/24 00:42:43;;;;;;;4.20;3.33;;;24.70;67.30;;;;;;7651215;22;84278;-53
2023/09/24 00:45:44;;;;;;;5.05;3.28;;;24.70;67.20;;;;;;7679678;22;80614;-48
2023/09/24 00:48:45;;;;;;;6.63;3.78;;;24.70;67.20;;;;;;7679735;22;81211;-49
2023/09/24 00:51:48;;;;;;;5.35;3.25;;;24.70;67.30;;;;;;7649068;22;83283;-49
2023/09/24 00:54:48;;;;;;;6.88;3.92;;;24.70;67.40;;;;;;7648954;22;80689;-53
2023/09/24 00:57:49;;;;;;;6.18;2.92;;;24.70;67.40;;;;;;7676980;22;80793;-52
2023/09/24 01:00:50;;;;;;;8.20;3.40;;;24.70;67.00;;;;;;7624089;22;82035;-55
2023/09/24 01:03:51;;;;;;;3.50;2.95;;;24.70;66.90;;;;;;7675488;22;81830;-53
2023/09/24 01:06:51;;;;;;;5.55;3.30;;;24.70;66.70;;;;;;7678104;22;80542;-53
2023/09/24 01:09:53;;;;;;;3.97;3.03;;;24.70;67.00;;;;;;7679145;22;82293;-50
2023/09/24 01:12:54;;;;;;;5.00;2.95;;;24.70;66.90;;;;;;7677731;22;80341;-50
2023/09/24 01:15:55;;;;;;;4.20;2.92;;;24.70;66.90;;;;;;7679510;22;80633;-52
2023/09/24 01:18:55;;;;;;;7.25;3.10;;;24.70;66.30;;;;;;7647778;22;83463;-55
2023/09/24 01:21:58;;;;;;;4.47;2.65;;;24.70;66.30;;;;;;7679415;22;80499;-54
2023/09/24 01:24:59;;;;;;;5.18;3.13;;;24.70;66.30;;;;;;7680336;22;80939;-54
2023/09/24 01:27:59;;;;;;;3.97;2.70;;;24.60;66.40;;;;;;7678958;22;80730;-53
2023/09/24 01:31:00;;;;;;;5.07;3.03;;;24.60;66.90;;;;;;7680195;22;80238;-49
2023/09/24 01:34:04;;;;;;;4.60;2.85;;;24.60;66.70;;;;;;7680197;22;81421;-50
2023/09/24 01:37:08;;;;;;;4.25;2.70;;;24.60;66.80;;;;;;7680104;22;80204;-51
2023/09/24 01:40:22;;;;;;;2.80;2.50;;;24.60;66.90;;;;;;7678663;22;80476;-49
2023/09/24 01:43:22;;;;;;;3.03;2.58;;;24.60;66.60;;;;;;7648570;22;82079;-52
2023/09/24 01:46:23;;;;;;;4.57;2.45;;;24.60;66.80;;;;;;7674945;22;86263;-52
2023/09/24 01:49:23;;;;;;;4.30;2.38;;;24.60;66.80;;;;;;7664950;22;80649;-59
2023/09/24 01:52:24;;;;;;;3.85;2.65;;;24.60;66.50;;;;;;7644325;22;81370;-50
2023/09/24 01:55:25;;;;;;;4.68;2.65;;;24.60;66.30;;;;;;7673404;22;80464;-50
2023/09/24 01:58:25;;;;;;;3.42;2.40;;;24.60;66.30;;;;;;7645941;22;81344;-49
2023/09/24 02:01:26;;;;;;;4.00;2.15;;;24.60;66.20;;;;;;7646756;22;83099;-48
2023/09/24 02:04:29;;;;;;;3.58;2.55;;;24.60;66.10;;;;;;7679248;22;80705;-49
2023/09/24 02:07:29;;;;;;;4.85;2.50;;;24.60;66.10;;;;;;7627579;22;81328;-50
2023/09/24 02:10:30;;;;;;;4.70;2.72;;;24.60;66.00;;;;;;7679157;22;80887;-49
2023/09/24 02:13:30;;;;;;;3.30;1.90;;;24.60;65.90;;;;;;7679968;22;82146;-49
2023/09/24 02:16:31;;;;;;;4.05;2.80;;;24.60;66.00;;;;;;7678996;22;80348;-47
2023/09/24 02:19:31;;;;;;;3.60;1.98;;;24.60;65.80;;;;;;7652178;22;80901;-52
2023/09/24 02:22:32;;;;;;;2.90;2.15;;;24.60;65.60;;;;;;7650724;22;83411;-51
2023/09/24 02:25:33;;;;;;;2.67;2.25;;;24.50;65.50;;;;;;7679086;22;80608;-49
2023/09/24 02:28:33;;;;;;;3.45;2.45;;;24.60;65.60;;;;;;7651700;22;80539;-54
2023/09/24 02:31:34;;;;;;;3.65;1.90;;;24.50;65.60;;;;;;7678683;22;79967;-53
2023/09/24 02:34:34;;;;;;;3.47;2.33;;;24.50;65.60;;;;;;7678252;22;81391;-56
2023/09/24 02:37:35;;;;;;;1.80;1.65;;;24.50;65.40;;;;;;7677404;22;80462;-52
2023/09/24 02:40:36;;;;;;;3.35;2.30;;;24.50;65.50;;;;;;7677130;22;80895;-54
2023/09/24 02:43:37;;;;;;;2.42;2.00;;;24.50;65.60;;;;;;7649091;22;83400;-53
2023/09/24 02:46:37;;;;;;;3.63;2.20;;;24.50;65.50;;;;;;7678247;22;80393;-51
2023/09/24 02:49:38;;;;;;;3.83;1.98;;;24.40;65.60;;;;;;7678558;22;80516;-53
2023/09/24 02:52:39;;;;;;;6.03;1.98;;;24.50;65.50;;;;;;7679244;22;80870;-55
2023/09/24 02:55:39;;;;;;;2.35;1.77;;;24.40;65.30;;;;;;7651133;22;82941;-54
2023/09/24 02:58:40;;;;;;;4.07;2.70;;;24.40;65.50;;;;;;7678052;22;81081;-54
2023/09/24 03:01:46;;;;;;;4.68;2.10;;;24.40;65.30;;;;;;7651270;22;83799;-48
2023/09/24 03:04:47;;;;;;;4.15;2.20;;;24.40;65.20;;;;;;7651420;22;83469;-51
2023/09/24 03:07:50;;;;;;;3.17;1.85;;;24.40;64.90;;;;;;7650541;22;83233;-51
2023/09/24 03:10:51;;;;;;;2.13;1.60;;;24.40;65.00;;;;;;7650651;22;81332;-52
2023/09/24 03:13:52;;;;;;;5.10;2.15;;;24.40;65.00;;;;;;7675377;22;80769;-49
2023/09/24 03:16:53;;;;;;;2.25;1.83;;;24.40;65.00;;;;;;7675676;22;80846;-50
2023/09/24 03:19:53;;;;;;;4.90;1.80;;;24.40;65.00;;;;;;7625027;22;83366;-48
2023/09/24 03:22:54;;;;;;;2.03;1.75;;;24.40;64.90;;;;;;7674637;22;83407;-53
2023/09/24 03:25:56;;;;;;;2.80;1.83;;;24.40;64.80;;;;;;7674819;22;81878;-61
2023/09/24 03:28:56;;;;;;;2.10;1.60;;;24.40;64.80;;;;;;7678186;22;80660;-61
2023/09/24 03:31:58;;;;;;;5.30;2.13;;;24.40;64.70;;;;;;7678568;22;83447;-61
2023/09/24 03:34:59;;;;;;;6.53;2.00;;;24.40;64.70;;;;;;7676419;22;80836;-62
2023/09/24 03:38:00;;;;;;;3.70;1.88;;;24.40;64.70;;;;;;7678161;22;83013;-62
2023/09/24 03:41:00;;;;;;;3.35;2.00;;;24.40;64.60;;;;;;7677999;22;81410;-64
2023/09/24 03:44:01;;;;;;;2.70;1.77;;;24.40;64.50;;;;;;7680578;22;80511;-69
2023/09/24 03:47:03;;;;;;;3.13;2.03;;;24.40;64.50;;;;;;7678373;22;82616;-64
2023/09/24 03:50:04;;;;;;;4.88;2.00;;;24.40;64.60;;;;;;7676990;22;83135;-69
2023/09/24 03:53:04;;;;;;;3.25;1.70;;;24.40;64.60;;;;;;7677826;22;82768;-65
2023/09/24 03:56:07;;;;;;;2.83;2.10;;;24.40;64.50;;;;;;7677723;22;83285;-70
2023/09/24 03:59:08;;;;;;;2.22;1.63;;;24.40;64.50;;;;;;7679096;22;84296;-62
2023/09/24 04:02:09;;;;;;;2.13;1.88;;;24.40;64.40;;;;;;7676768;22;83643;-61
2023/09/24 04:05:14;;;;;;;3.85;1.80;;;24.40;64.60;;;;;;7677456;22;81415;-61
2023/09/24 04:08:14;;;;;;;3.50;2.00;;;24.40;64.60;;;;;;7678120;22;82917;-59
2023/09/24 04:11:15;;;;;;;4.97;2.10;;;24.40;64.60;;;;;;7676935;22;80868;-60
2023/09/24 04:14:16;;;;;;;2.58;2.00;;;24.40;64.50;;;;;;7650155;22;82029;-60
2023/09/24 04:17:17;;;;;;;3.08;1.73;;;24.40;64.60;;;;;;7679890;22;81278;-64
2023/09/24 04:20:20;;;;;;;2.35;1.50;;;24.40;64.50;;;;;;7678042;22;80326;-66
2023/09/24 04:23:20;;;;;;;1.88;1.67;;;24.40;64.60;;;;;;7678713;22;81230;-65
2023/09/24 04:26:21;;;;;;;1.60;1.50;;;24.40;64.80;;;;;;7678246;22;80347;-68
2023/09/24 04:29:22;;;;;;;4.75;2.17;;;24.40;64.30;;;;;;7678420;22;80834;-67
2023/09/24 04:32:22;;;;;;;4.03;1.73;;;24.40;64.40;;;;;;7678769;22;80529;-66
2023/09/24 04:35:23;;;;;;;3.85;1.98;;;24.40;64.40;;;;;;7678994;22;80240;-67
2023/09/24 04:38:23;;;;;;;3.17;1.90;;;24.40;64.40;;;;;;7679190;22;80829;-60
2023/09/24 04:41:24;;;;;;;5.07;1.80;;;24.40;64.20;;;;;;7678434;22;80606;-60
2023/09/24 04:44:24;;;;;;;3.75;2.17;;;24.40;64.10;;;;;;7679403;22;80429;-60
2023/09/24 04:47:25;;;;;;;2.33;1.83;;;24.40;64.20;;;;;;7678786;22;80443;-60
2023/09/24 04:50:26;;;;;;;3.55;1.80;;;24.40;64.10;;;;;;7680499;22;81526;-59
2023/09/24 04:53:26;;;;;;;4.65;2.10;;;24.40;64.20;;;;;;7679507;22;80795;-59
2023/09/24 04:56:27;;;;;;;6.57;1.92;;;24.40;64.40;;;;;;7680575;22;80690;-63
2023/09/24 04:59:27;;;;;;;1.67;1.58;;;24.40;64.20;;;;;;7679760;22;79953;-62
2023/09/24 05:02:28;;;;;;;3.38;1.83;;;24.40;64.50;;;;;;7679976;22;81848;-60
2023/09/24 05:05:29;;;;;;;7.90;1.92;;;24.40;64.20;;;;;;7680473;22;80392;-64
2023/09/24 05:08:29;;;;;;;5.30;2.10;;;24.40;64.10;;;;;;7680673;22;81029;-60
2023/09/24 05:11:30;;;;;;;11.77;2.30;;;24.40;64.10;;;;;;7680043;22;80047;-60
2023/09/24 05:14:30;;;;;;;6.82;2.35;;;24.40;64.20;;;;;;7674085;22;81573;-65
2023/09/24 05:17:32;;;;;;;1.83;1.60;;;24.40;64.20;;;;;;7637088;22;82528;-64
2023/09/24 05:20:32;;;;;;;8.30;1.70;;;24.40;64.20;;;;;;7671616;22;80996;-58
2023/09/24 05:23:33;;;;;;;4.80;2.10;;;24.40;64.30;;;;;;7650183;22;84231;-59
2023/09/24 05:26:34;;;;;;;4.50;1.55;;;24.40;64.40;;;;;;7676004;22;80993;-62
2023/09/24 05:29:34;;;;;;;3.30;1.85;;;24.40;64.70;;;;;;7676915;22;80626;-64
2023/09/24 05:32:35;;;;;;;2.10;1.55;;;24.40;64.70;;;;;;7677293;22;80097;-53
2023/09/24 05:35:35;;;;;;;4.15;1.70;;;24.40;64.50;;;;;;7678333;22;80218;-51
2023/09/24 05:38:36;;;;;;;8.25;1.67;;;24.50;64.40;;;;;;7679159;22;81429;-54
2023/09/24 05:41:37;;;;;;;6.30;1.80;;;24.50;65.00;;;;;;7680581;22;80314;-53
2023/09/24 05:44:37;;;;;;;5.40;1.67;;;24.50;64.60;;;;;;7679780;22;80266;-54
2023/09/24 05:47:38;;;;;;;8.50;1.92;;;24.50;64.70;;;;;;7678692;22;81238;-60
2023/09/24 05:50:38;;;;;;;3.65;1.73;;;24.50;64.70;;;;;;7677239;22;80956;-51
2023/09/24 05:53:39;;;;;;;6.03;1.88;;;24.50;64.80;;;;;;7680653;22;80281;-52
2023/09/24 05:56:40;;;;;;;4.47;1.95;;;24.50;65.50;;;;;;7678849;22;80388;-47
2023/09/24 05:59:40;;;;;;;4.22;1.50;;;24.50;65.50;;;;;;7680177;22;80254;-51
2023/09/24 06:02:41;;;;;;;6.35;1.65;;;24.50;65.60;;;;;;7677468;22;80813;-51
2023/09/24 06:05:41;;;;;;;12.63;1.58;;;24.50;65.90;;;;;;7678692;22;81502;-53
2023/09/24 06:08:43;;;;;;;7.53;1.88;;;24.60;65.80;;;;;;7677761;22;80332;-57
2023/09/24 06:11:43;;;;;;;4.38;1.80;;;24.60;65.70;;;;;;7680247;22;80621;-57
2023/09/24 06:14:44;;;;;;;3.58;1.38;;;24.60;65.70;;;;;;7678578;22;80361;-58
2023/09/24 06:17:45;;;;;;;3.53;1.55;;;24.70;65.40;;;;;;7680292;22;80666;-57
2023/09/24 06:20:45;;;;;;;7.15;1.48;;;24.70;65.50;;;;;;7679440;22;80324;-57
2023/09/24 06:23:45;;;;;;;2.35;1.67;;;24.70;65.30;;;;;;7680837;22;80123;-60
2023/09/24 06:26:46;;;;;;;6.78;2.22;;;24.80;65.40;;;;;;7681603;22;81365;-61
2023/09/24 06:29:46;;;;;;;7.22;1.90;;;24.80;65.20;;;;;;7683633;22;80597;-62
2023/09/24 06:32:47;;;;;;;3.45;1.42;;;24.90;66.20;;;;;;7680110;22;80685;-60
2023/09/24 06:35:47;;;;;;;2.53;1.73;;;24.90;66.60;;;;;;7679344;22;80852;-60
2023/09/24 06:38:48;;;;;;;6.97;1.73;;;24.90;66.60;;;;;;7682761;22;80470;-60
2023/09/24 06:41:48;;;;;;;2.28;1.60;;;24.90;66.70;;;;;;7682195;22;80645;-62
2023/09/24 06:44:49;;;;;;;6.80;1.80;;;24.90;66.70;;;;;;7685520;22;80242;-70
2023/09/24 06:47:49;;;;;;;5.47;1.60;;;24.90;66.40;;;;;;7656908;22;80658;-70
2023/09/24 06:50:50;;;;;;;2.47;1.50;;;24.80;66.10;;;;;;7681155;22;80545;-67
2023/09/24 06:53:52;;;;;;;9.13;2.03;;;24.90;66.30;;;;;;7680890;22;80451;-66
2023/09/24 06:56:52;;;;;;;6.53;1.52;;;24.90;65.90;;;;;;7681181;22;80293;-66
2023/09/24 06:59:53;;;;;;;4.93;1.75;;;24.90;66.20;;;;;;7659269;22;85830;-65
2023/09/24 07:02:53;;;;;;;4.68;1.85;;;24.90;65.40;;;;;;7679562;22;80377;-55
2023/09/24 07:05:54;;;;;;;4.55;1.48;;;24.90;65.10;;;;;;7677181;22;80726;-50
2023/09/24 07:08:54;;;;;;;4.55;2.08;;;24.90;65.00;;;;;;7677395;22;80769;-52
2023/09/24 07:11:55;;;;;;;6.82;2.00;;;24.90;65.20;;;;;;7676977;22;80367;-51
2023/09/24 07:14:55;;;;;;;2.17;1.60;;;24.90;65.20;;;;;;7677576;22;80327;-47
2023/09/24 07:17:56;;;;;;;2.75;1.80;;;24.90;65.10;;;;;;7677152;22;80679;-52
2023/09/24 07:20:57;;;;;;;2.92;1.92;;;24.90;65.10;;;;;;7676871;22;80243;-50
2023/09/24 07:23:58;;;;;;;4.90;1.60;;;24.90;64.90;;;;;;7649572;22;80724;-53
2023/09/24 07:27:02;;;;;;;3.65;1.73;;;24.90;64.60;;;;;;7673916;22;81037;-50
2023/09/24 07:30:03;;;;;;;2.30;1.60;;;24.90;64.80;;;;;;7679278;22;87577;-52
2023/09/24 07:33:04;;;;;;;3.97;1.75;;;24.90;64.70;;;;;;7676654;22;80757;-51
2023/09/24 07:36:04;;;;;;;6.00;1.60;;;24.90;64.60;;;;;;7678093;22;80379;-50
2023/09/24 07:39:05;;;;;;;3.70;1.67;;;24.90;64.30;;;;;;7677531;22;80533;-49
2023/09/24 07:42:06;;;;;;;4.80;1.70;;;24.90;64.10;;;;;;7679281;22;80963;-61
2023/09/24 07:45:07;;;;;;;5.32;1.80;;;24.90;64.10;;;;;;7679789;22;80073;-64
2023/09/24 07:48:13;;;;;;;2.75;1.70;;;24.90;63.80;;;;;;7680977;22;80796;-59
2023/09/24 07:51:16;;;;;;;4.35;1.58;;;24.90;63.60;;;;;;7681550;22;80262;-59
2023/09/24 07:54:17;;;;;;;4.20;1.60;;;24.90;63.60;;;;;;7679115;22;80397;-60
2023/09/24 07:57:18;;;;;;;3.28;1.58;;;24.90;63.30;;;;;;7678879;22;80082;-66
2023/09/24 08:00:18;;;;;;;2.97;1.73;;;24.80;63.60;;;;;;7679293;22;80676;-58
2023/09/24 08:03:19;;;;;;;5.22;1.58;;;24.80;63.40;;;;;;7678978;22;80501;-60
2023/09/24 08:06:19;;;;;;;2.58;1.70;;;24.80;63.30;;;;;;7671595;22;81123;-62
2023/09/24 08:09:20;;;;;;;22.58;2.10;;;24.80;63.30;;;;;;7652492;22;82585;-58
2023/09/24 08:12:20;;;;;;;3.97;1.70;;;24.80;63.10;;;;;;7681165;22;80528;-62
2023/09/24 08:15:21;;;;;;;1.92;1.67;;;24.80;62.90;;;;;;7664235;22;82206;-58
2023/09/24 08:18:21;;;;;;;2.95;1.85;;;24.80;62.80;;;;;;7657341;22;80964;-54
2023/09/24 08:21:22;;;;;;;2.67;1.48;;;24.80;62.80;;;;;;7654313;22;81922;-54
2023/09/24 08:24:23;;;;;;;2.25;1.75;;;24.80;62.50;;;;;;7662469;22;80853;-52
2023/09/24 08:27:23;;;;;;;2.47;1.80;;;24.90;62.40;;;;;;7660256;22;80757;-51
2023/09/24 08:30:24;;;;;;;3.08;1.50;;;24.90;62.20;;;;;;7664136;22;81142;-52
2023/09/24 08:33:24;;;;;;;3.78;1.80;;;24.80;62.20;;;;;;7659558;22;80834;-61
2023/09/24 08:36:25;;;;;;;1.73;1.58;;;24.90;62.00;;;;;;7662302;22;80801;-55
2023/09/24 08:39:25;;;;;;;1.85;1.50;;;24.80;61.80;;;;;;7660419;22;80856;-54
2023/09/24 08:42:26;;;;;;;3.95;1.63;;;24.90;61.80;;;;;;7662488;22;80928;-51
2023/09/24 08:45:28;;;;;;;4.22;2.10;;;24.90;61.80;;;;;;7659579;22;81785;-52
2023/09/24 08:48:29;;;;;;;1.73;1.45;;;24.80;61.70;;;;;;7655694;22;80896;-52
2023/09/24 08:51:29;;;;;;;3.40;1.90;;;24.90;61.70;;;;;;7663078;22;80917;-63
2023/09/24 08:54:30;;;;;;;3.90;2.15;;;24.90;61.70;;;;;;7663660;22;81417;-67
2023/09/24 08:57:30;;;;;;;2.75;2.22;;;24.80;61.70;;;;;;7659708;22;80921;-68
2023/09/24 09:00:31;;;;;;;3.72;1.83;;;24.90;61.70;;;;;;7663451;22;80913;-67
2023/09/24 09:03:31;;;;;;;2.60;1.67;;;24.80;61.60;;;;;;7655041;22;83243;-69
2023/09/24 09:06:32;;;;;;;4.25;2.60;;;24.80;61.40;;;;;;7662878;22;80661;-69
2023/09/24 09:09:33;;;;;;;5.13;2.38;;;24.90;61.40;;;;;;7660048;22;81253;-72
2023/09/24 09:12:33;;;;;;;4.35;2.70;;;24.90;61.10;;;;;;7661028;22;80986;-65
2023/09/24 09:15:34;;;;;;;6.80;2.42;;;24.90;61.30;;;;;;7660376;22;80609;-67
2023/09/24 09:18:35;;;;;;;2.33;1.75;;;24.80;61.10;;;;;;7639541;22;81366;-72
2023/09/24 09:21:35;;;;;;;3.78;1.92;;;24.80;60.90;;;;;;7661037;22;80509;-68
2023/09/24 09:24:36;;;;;;;3.55;1.75;;;24.70;61.10;;;;;;7659658;22;81641;-67
2023/09/24 09:27:36;;;;;;;5.57;2.05;;;24.70;61.40;;;;;;7640541;22;80930;-47
2023/09/24 09:30:37;;;;;;;5.75;2.15;;;24.60;61.20;;;;;;7656166;22;81532;-66
2023/09/24 09:33:39;;;;;;;3.35;2.10;;;24.60;61.10;;;;;;7658384;22;80964;-67
2023/09/24 09:36:40;;;;;;;5.35;2.50;;;24.60;61.30;;;;;;7656524;22;80820;-68
2023/09/24 09:39:41;;;;;;;5.68;2.25;;;24.60;61.50;;;;;;7655797;22;81133;-71
2023/09/24 09:42:41;;;;;;;6.25;2.70;;;24.60;61.30;;;;;;7658820;22;81379;-68
2023/09/24 09:45:42;;;;;;;3.50;2.33;;;24.60;61.20;;;;;;7647755;22;81562;-67
2023/09/24 09:48:42;;;;;;;6.28;2.38;;;24.50;61.30;;;;;;7630250;22;82437;-54
2023/09/24 09:51:43;;;;;;;3.63;2.03;;;24.50;61.30;;;;;;7660609;22;80818;-58
2023/09/24 09:54:44;;;;;;;4.32;2.10;;;24.50;61.70;;;;;;7660493;22;80708;-56
2023/09/24 09:57:45;;;;;;;7.43;2.47;;;24.50;61.60;;;;;;7657020;22;80435;-57
2023/09/24 10:00:46;;;;;;;3.80;2.35;;;24.50;61.70;;;;;;7658140;22;80572;-57
2023/09/24 10:03:46;;;;;;;3.15;2.67;;;24.50;61.90;;;;;;7660989;22;80592;-57
2023/09/24 10:06:47;;;;;;;6.22;2.20;;;24.50;61.70;;;;;;7632351;22;81174;-66
2023/09/24 10:09:49;;;;;;;4.05;2.38;;;24.40;61.80;;;;;;7629881;22;83860;-65
2023/09/24 10:12:50;;;;;;;7.43;2.30;;;24.40;61.90;;;;;;7661090;22;80494;-66
2023/09/24 10:15:50;;;;;;;3.92;2.05;;;24.40;61.70;;;;;;7657207;22;81025;-66
2023/09/24 10:18:51;;;;;;;4.70;2.47;;;24.40;61.90;;;;;;7657611;22;80939;-66
2023/09/24 10:21:51;;;;;;;4.20;2.10;;;24.40;61.70;;;;;;7660754;22;80800;-63
2023/09/24 10:24:52;;;;;;;4.13;2.50;;;24.50;62.70;;;;;;7657060;22;81210;-63
2023/09/24 10:27:52;;;;;;;7.03;2.83;;;24.50;62.20;;;;;;7652783;22;81463;-65
2023/09/24 10:30:55;;;;;;;11.70;3.63;;;24.50;62.30;;;;;;7659070;22;82407;-63
2023/09/24 10:33:59;;;;;;;14.38;6.07;;;24.50;62.50;;;;;;7659481;22;81483;-63
2023/09/24 10:37:00;;;;;;;23.63;7.00;;;24.50;62.60;;;;;;7627166;22;82647;-64
2023/09/24 10:43:01;;;;;;;16.58;7.03;;;24.50;62.90;;;;;;7654841;22;80726;-55
2023/09/24 10:46:01;;;;;;;20.58;7.28;;;24.50;62.80;;;;;;7658447;22;80638;-48
2023/09/24 10:49:02;;;;;;;12.82;5.00;;;24.40;62.80;;;;;;7654646;22;80759;-46
2023/09/24 10:52:02;;;;;;;10.05;4.03;;;24.40;62.80;;;;;;7659593;22;81190;-48
2023/09/24 10:55:03;;;;;;;15.90;4.88;;;24.40;63.10;;;;;;7660305;22;80861;-51
2023/09/24 10:58:03;;;;;;;10.80;4.22;;;24.40;63.10;;;;;;7655771;22;81499;-48
2023/09/24 11:01:04;;;;;;;18.10;3.42;;;24.50;62.80;;;;;;7631520;22;81680;-56
2023/09/24 11:04:04;;;;;;;12.27;3.30;;;24.50;63.00;;;;;;7633215;22;81860;-54
2023/09/24 11:07:05;;;;;;;7.78;2.80;;;24.50;62.40;;;;;;7657556;22;80338;-55
2023/09/24 11:10:05;;;;;;;9.70;2.28;;;24.40;62.50;;;;;;7656792;22;80709;-56
2023/09/24 11:13:06;;;;;;;5.05;2.38;;;24.50;61.80;;;;;;7660062;22;80426;-57
2023/09/24 11:16:06;;;;;;;6.00;2.30;;;24.50;61.40;;;;;;7657599;22;81070;-53
2023/09/24 11:19:07;;;;;;;5.68;2.58;;;24.50;61.20;;;;;;7654486;22;80811;-50
2023/09/24 11:22:07;;;;;;;3.75;2.15;;;24.50;61.20;;;;;;7631786;22;83697;-56
2023/09/24 11:25:09;;;;;;;3.20;1.70;;;24.50;61.30;;;;;;7671263;22;81099;-56
2023/09/24 11:28:09;;;;;;;3.58;2.17;;;24.50;60.90;;;;;;7678877;22;80526;-57
2023/09/24 11:31:10;;;;;;;4.43;2.20;;;24.50;61.30;;;;;;7678509;22;81422;-57
2023/09/24 11:34:11;;;;;;;3.50;2.08;;;24.50;61.30;;;;;;7678675;22;81381;-55
2023/09/24 11:37:12;;;;;;;4.75;2.53;;;24.50;61.00;;;;;;7670841;22;81352;-59
2023/09/24 11:40:13;;;;;;;6.45;3.05;;;24.50;61.20;;;;;;7678802;22;80888;-56
2023/09/24 11:43:14;;;;;;;5.60;2.65;;;24.50;60.80;;;;;;7679596;22;81186;-57
2023/09/24 11:46:14;;;;;;;6.15;2.47;;;24.50;61.30;;;;;;7679795;22;80561;-56
2023/09/24 11:49:15;;;;;;;8.18;2.35;;;24.50;61.50;;;;;;7680486;22;81291;-56
2023/09/24 11:52:15;;;;;;;4.65;3.10;;;24.60;61.40;;;;;;7675922;22;81669;-57
2023/09/24 11:55:17;;;;;;;2.53;2.08;;;24.60;61.60;;;;;;7676960;22;80361;-49
2023/09/24 11:58:17;;;;;;;4.32;2.45;;;24.60;61.30;;;;;;7681403;22;80913;-50
2023/09/24 12:01:18;;;;;;;2.70;1.80;;;24.60;61.40;;;;;;7681806;22;87419;-50
2023/09/24 12:04:18;;;;;;;3.25;1.80;;;24.60;61.40;;;;;;7681342;22;80113;-47
2023/09/24 12:07:19;;;;;;;3.40;2.42;;;24.70;60.90;;;;;;7650683;22;81143;-48
2023/09/24 12:10:21;;;;;;;5.15;2.20;;;24.70;60.60;;;;;;7681567;22;80038;-48
2023/09/24 12:13:22;;;;;;;1.90;1.70;;;24.70;60.80;;;;;;7677814;22;80272;-50
2023/09/24 12:16:22;;;;;;;3.30;1.98;;;24.70;61.00;;;;;;7682729;22;80675;-65
2023/09/24 12:19:23;;;;;;;2.70;1.98;;;24.70;61.40;;;;;;7682568;22;82722;-60
2023/09/24 12:22:23;;;;;;;3.30;2.00;;;24.70;60.00;;;;;;7679522;22;80380;-65
2023/09/24 12:25:24;;;;;;;3.10;2.38;;;24.70;60.90;;;;;;7657938;22;83208;-65
2023/09/24 12:28:27;;;;;;;3.17;1.95;;;24.70;60.00;;;;;;7683383;22;80135;-64
2023/09/24 12:31:27;;;;;;;7.22;2.13;;;24.70;60.00;;;;;;7681919;22;80365;-49
2023/09/24 12:34:28;;;;;;;5.78;2.20;;;24.70;59.70;;;;;;7682093;22;81130;-49
2023/09/24 12:37:29;;;;;;;4.38;2.10;;;24.70;59.50;;;;;;7677988;22;80801;-47
2023/09/24 12:40:29;;;;;;;2.17;1.90;;;24.70;59.70;;;;;;7679991;22;81139;-47
2023/09/24 12:43:30;;;;;;;2.42;2.17;;;24.70;61.10;;;;;;7679653;22;80467;-49
2023/09/24 12:46:30;;;;;;;3.55;2.20;;;24.60;60.30;;;;;;7680667;22;80821;-50
2023/09/24 12:49:31;;;;;;;4.68;2.00;;;24.70;60.10;;;;;;7681847;22;81380;-49
2023/09/24 12:52:31;;;;;;;2.38;2.00;;;24.70;60.30;;;;;;7677383;22;80828;-49
2023/09/24 12:55:32;;;;;;;3.15;2.17;;;24.70;60.30;;;;;;7653690;22;81998;-49
2023/09/24 12:58:32;;;;;;;2.88;1.90;;;24.70;60.20;;;;;;7654337;22;80925;-49
2023/09/24 13:01:33;;;;;;;3.58;2.10;;;24.70;60.20;;;;;;7680796;22;80078;-52
2023/09/24 13:04:34;;;;;;;2.35;2.00;;;24.70;60.20;;;;;;7675341;22;80516;-48
2023/09/24 13:07:35;;;;;;;8.40;2.30;;;24.70;60.00;;;;;;7676538;22;81260;-51
2023/09/24 13:10:35;;;;;;;3.75;1.90;;;24.70;60.50;;;;;;7679090;22;80303;-57
2023/09/24 13:13:36;;;;;;;2.92;2.13;;;24.70;60.40;;;;;;7654913;22;81496;-66
2023/09/24 13:16:36;;;;;;;22.40;2.90;;;24.70;60.50;;;;;;7679364;22;81753;-67
2023/09/24 13:19:37;;;;;;;11.35;2.45;;;24.80;60.60;;;;;;7679531;22;80022;-63
2023/09/24 13:22:38;;;;;;;10.18;2.00;;;24.70;60.30;;;;;;7678308;22;80407;-70
2023/09/24 13:25:38;;;;;;;5.57;2.60;;;24.70;60.50;;;;;;7679058;22;80497;-71
2023/09/24 13:28:39;;;;;;;15.73;2.78;;;24.70;60.50;;;;;;7677452;22;80622;-60
2023/09/24 13:31:39;;;;;;;2.55;2.20;;;24.70;60.70;;;;;;7679085;22;80350;-57
2023/09/24 13:34:40;;;;;;;6.63;1.95;;;24.70;60.30;;;;;;7678125;22;82064;-59
2023/09/24 13:37:49;;;;;;;7.28;2.17;;;24.60;60.50;;;;;;7648968;22;81656;-57
2023/09/24 13:40:50;;;;;;;6.75;2.15;;;24.60;60.50;;;;;;7650056;22;83431;-59
2023/09/24 13:43:50;;;;;;;4.88;2.17;;;24.60;60.60;;;;;;7678809;22;81296;-58
2023/09/24 13:46:52;;;;;;;7.43;2.17;;;24.60;60.40;;;;;;7677847;22;80783;-54
2023/09/24 13:49:52;;;;;;;3.85;2.30;;;24.60;60.40;;;;;;7651623;22;80633;-65
2023/09/24 13:52:53;;;;;;;6.45;2.45;;;24.60;60.40;;;;;;7651451;22;80324;-69
2023/09/24 13:55:53;;;;;;;4.53;2.53;;;24.50;60.40;;;;;;7678901;22;81310;-65
2023/09/24 13:58:56;;;;;;;3.40;2.50;;;24.50;60.40;;;;;;7677636;22;81551;-66
2023/09/24 14:01:56;;;;;;;3.58;1.95;;;24.50;60.40;;;;;;7678434;22;81538;-65
2023/09/24 14:04:57;;;;;;;3.70;2.03;;;24.40;60.40;;;;;;7680295;22;80330;-69
2023/09/24 14:14:36;;;;;;;5.70;2.80;;;24.30;60.70;;;;;;7676562;22;86152;-65
2023/09/24 14:17:37;;;;;;;6.90;2.80;;;24.30;60.80;;;;;;7676556;22;81220;-64
2023/09/24 14:20:37;;;;;;;10.63;3.17;;;24.30;61.10;;;;;;7674722;22;80483;-66
2023/09/24 14:23:38;;;;;;;5.18;2.45;;;24.30;61.40;;;;;;7681332;22;80500;-69
2023/09/24 14:26:39;;;;;;;5.07;2.35;;;24.30;61.40;;;;;;7680569;22;80134;-64
2023/09/24 14:29:39;;;;;;;8.55;2.50;;;24.30;61.30;;;;;;7680598;22;80719;-68
2023/09/24 14:32:40;;;;;;;4.97;2.42;;;24.30;61.50;;;;;;7681587;22;80390;-71
2023/09/24 14:35:40;;;;;;;5.50;2.38;;;24.30;61.60;;;;;;7679358;22;80872;-64
2023/09/24 14:38:41;;;;;;;10.35;2.95;;;24.30;61.70;;;;;;7680367;22;80743;-62
2023/09/24 14:41:42;;;;;;;8.23;2.90;;;24.30;61.80;;;;;;7680588;22;80559;-65
2023/09/24 14:44:42;;;;;;;4.07;2.97;;;24.20;61.90;;;;;;7677177;22;80805;-65
2023/09/24 14:47:43;;;;;;;6.97;3.22;;;24.20;62.10;;;;;;7677682;22;80220;-63
2023/09/24 14:50:44;;;;;;;7.00;2.80;;;24.20;62.30;;;;;;7679269;22;80681;-60
2023/09/24 14:53:44;;;;;;;7.72;3.28;;;24.20;62.40;;;;;;7652523;22;82151;-63
2023/09/24 14:56:45;;;;;;;6.75;2.80;;;24.20;62.50;;;;;;7654661;22;81313;-63
2023/09/24 14:59:45;;;;;;;8.35;2.95;;;24.20;62.80;;;;;;7660096;22;80613;-58
2023/09/24 15:02:46;;;;;;;8.55;3.58;;;24.20;62.70;;;;;;7659775;22;80761;-50
2023/09/24 15:05:46;;;;;;;11.45;3.00;;;24.20;62.80;;;;;;7658962;22;80666;-53
2023/09/24 15:08:47;;;;;;;6.50;3.45;;;24.20;63.30;;;;;;7656137;22;80591;-52
2023/09/24 15:11:48;;;;;;;4.85;2.50;;;24.20;63.00;;;;;;7658714;22;81490;-51
2023/09/24 15:14:48;;;;;;;16.05;3.17;;;24.20;63.40;;;;;;7660264;22;81438;-51
2023/09/24 15:17:49;;;;;;;6.47;2.58;;;24.20;63.40;;;;;;7658579;22;80638;-56
2023/09/24 15:20:50;;;;;;;6.60;2.70;;;24.20;63.10;;;;;;7660031;22;80689;-64
2023/09/24 15:23:51;;;;;;;5.57;2.20;;;24.20;63.10;;;;;;7659896;22;81011;-62
2023/09/24 15:26:52;;;;;;;7.53;2.67;;;24.20;63.10;;;;;;7631036;22;82441;-66
2023/09/24 15:29:52;;;;;;;6.47;2.95;;;24.30;63.40;;;;;;7658625;22;80657;-66
2023/09/24 15:32:53;;;;;;;6.35;2.85;;;24.30;63.60;;;;;;7655822;22;80577;-71
2023/09/24 15:35:53;;;;;;;5.15;2.90;;;24.30;63.50;;;;;;7654937;22;80588;-59
2023/09/24 15:38:54;;;;;;;14.50;3.08;;;24.30;64.00;;;;;;7655316;22;80678;-75
2023/09/24 15:41:54;;;;;;;4.05;2.80;;;24.30;63.40;;;;;;7663320;22;80984;-67
2023/09/24 15:44:55;;;;;;;5.10;2.17;;;24.30;63.60;;;;;;7652163;22;80455;-64
2023/09/24 15:47:55;;;;;;;4.47;2.28;;;24.30;63.70;;;;;;7677684;22;80476;-65